sensor_id;sensor_type;location;lat;lon;timestamp;pressure;altitude;pressure_sealevel;temperature;humidity
62952;BME280;52163;52.212;-1.002;2022-10-16T00:00:23;99245.88;;;10.39;77.00
62952;BME280;52163;52.212;-1.002;2022-10-16T00:02:48;99246.94;;;10.39;76.70
62952;BME280;52163;52.212;-1.002;2022-10-16T00:05:13;99252.00;;;10.38;76.61
62952;BME280;52163;52.212;-1.002;2022-10-16T00:07:39;99247.64;;;10.35;76.40
62952;BME280;52163;52.212;-1.002;2022-10-16T00:10:05;99250.97;;;10.30;76.20
62952;BME280;52163;52.212;-1.002;2022-10-16T00:12:30;99251.65;;;10.26;75.88
62952;BME280;52163;52.212;-1.002;2022-10-16T00:14:56;99251.37;;;10.21;76.14
62952;BME280;52163;52.212;-1.002;2022-10-16T00:17:21;99251.54;;;10.16;75.83
62952;BME280;52163;52.212;-1.002;2022-10-16T00:19:46;99253.55;;;10.13;75.92
62952;BME280;52163;52.212;-1.002;2022-10-16T00:22:12;99252.52;;;10.10;76.13
62952;BME280;52163;52.212;-1.002;2022-10-16T00:24:37;99254.75;;;10.09;76.14
62952;BME280;52163;52.212;-1.002;2022-10-16T00:27:02;99256.52;;;10.07;76.12
62952;BME280;52163;52.212;-1.002;2022-10-16T00:29:28;99252.95;;;10.05;75.89
62952;BME280;52163;52.212;-1.002;2022-10-16T00:31:53;99250.88;;;10.02;76.12
62952;BME280;52163;52.212;-1.002;2022-10-16T00:34:18;99250.55;;;9.97;76.05
62952;BME280;52163;52.212;-1.002;2022-10-16T00:36:44;99250.34;;;9.93;76.16
62952;BME280;52163;52.212;-1.002;2022-10-16T00:39:09;99255.69;;;9.90;76.30
62952;BME280;52163;52.212;-1.002;2022-10-16T00:41:35;99255.80;;;9.88;76.71
62952;BME280;52163;52.212;-1.002;2022-10-16T00:44:03;99261.15;;;9.88;76.51
62952;BME280;52163;52.212;-1.002;2022-10-16T00:46:38;99261.88;;;9.87;76.64
62952;BME280;52163;52.212;-1.002;2022-10-16T00:49:13;99271.15;;;9.86;76.70
62952;BME280;52163;52.212;-1.002;2022-10-16T00:51:45;99268.02;;;9.86;76.62
62952;BME280;52163;52.212;-1.002;2022-10-16T00:54:14;99275.19;;;9.84;76.58
62952;BME280;52163;52.212;-1.002;2022-10-16T00:56:43;99272.55;;;9.82;76.55
62952;BME280;52163;52.212;-1.002;2022-10-16T00:59:22;99269.35;;;9.79;76.67
62952;BME280;52163;52.212;-1.002;2022-10-16T01:01:50;99271.48;;;9.79;76.85
62952;BME280;52163;52.212;-1.002;2022-10-16T01:04:16;99272.75;;;9.79;76.96
62952;BME280;52163;52.212;-1.002;2022-10-16T01:12:15;99288.74;;;9.80;76.84
62952;BME280;52163;52.212;-1.002;2022-10-16T01:14:51;99286.73;;;9.79;76.78
62952;BME280;52163;52.212;-1.002;2022-10-16T01:17:25;99287.83;;;9.76;76.89
62952;BME280;52163;52.212;-1.002;2022-10-16T01:20:31;99287.75;;;9.72;76.89
62952;BME280;52163;52.212;-1.002;2022-10-16T01:23:04;99280.92;;;9.71;76.83
62952;BME280;52163;52.212;-1.002;2022-10-16T01:25:49;99282.63;;;9.72;77.43
62952;BME280;52163;52.212;-1.002;2022-10-16T01:28:22;99290.83;;;9.73;77.45
62952;BME280;52163;52.212;-1.002;2022-10-16T01:30:52;99289.73;;;9.74;77.40
62952;BME280;52163;52.212;-1.002;2022-10-16T01:33:28;99282.52;;;9.73;77.25
62952;BME280;52163;52.212;-1.002;2022-10-16T01:35:59;99288.78;;;9.72;77.15
62952;BME280;52163;52.212;-1.002;2022-10-16T01:38:36;99296.10;;;9.71;77.20
62952;BME280;52163;52.212;-1.002;2022-10-16T01:41:19;99301.80;;;9.73;77.39
62952;BME280;52163;52.212;-1.002;2022-10-16T01:43:52;99309.02;;;9.75;77.50
62952;BME280;52163;52.212;-1.002;2022-10-16T01:46:22;99324.84;;;9.78;77.57
62952;BME280;52163;52.212;-1.002;2022-10-16T01:48:50;99323.60;;;9.81;77.57
62952;BME280;52163;52.212;-1.002;2022-10-16T01:51:17;99324.86;;;9.84;77.66
62952;BME280;52163;52.212;-1.002;2022-10-16T01:53:51;99322.59;;;9.90;77.66
62952;BME280;52163;52.212;-1.002;2022-10-16T01:56:18;99326.79;;;9.93;77.91
62952;BME280;52163;52.212;-1.002;2022-10-16T01:58:52;99320.72;;;9.96;78.05
62952;BME280;52163;52.212;-1.002;2022-10-16T02:01:22;99330.08;;;10.00;78.00
62952;BME280;52163;52.212;-1.002;2022-10-16T02:03:51;99331.14;;;10.04;78.11
62952;BME280;52163;52.212;-1.002;2022-10-16T02:06:18;99331.83;;;10.09;78.08
62952;BME280;52163;52.212;-1.002;2022-10-16T02:08:45;99339.12;;;10.13;77.76
62952;BME280;52163;52.212;-1.002;2022-10-16T02:11:11;99338.48;;;10.15;77.83
62952;BME280;52163;52.212;-1.002;2022-10-16T02:13:59;99339.96;;;10.14;77.53
62952;BME280;52163;52.212;-1.002;2022-10-16T02:16:40;99339.69;;;10.08;77.51
62952;BME280;52163;52.212;-1.002;2022-10-16T02:19:07;99341.41;;;10.02;77.49
62952;BME280;52163;52.212;-1.002;2022-10-16T02:21:43;99343.54;;;9.97;77.55
62952;BME280;52163;52.212;-1.002;2022-10-16T02:26:52;99358.16;;;9.91;77.76
62952;BME280;52163;52.212;-1.002;2022-10-16T02:29:24;99358.63;;;9.88;77.82
62952;BME280;52163;52.212;-1.002;2022-10-16T02:31:54;99368.20;;;9.88;77.69
62952;BME280;52163;52.212;-1.002;2022-10-16T02:34:21;99372.58;;;9.86;77.80
62952;BME280;52163;52.212;-1.002;2022-10-16T02:36:50;99380.45;;;9.84;77.85
62952;BME280;52163;52.212;-1.002;2022-10-16T02:39:18;99381.86;;;9.84;77.92
62952;BME280;52163;52.212;-1.002;2022-10-16T02:41:44;99387.72;;;9.86;78.20
62952;BME280;52163;52.212;-1.002;2022-10-16T02:44:09;99393.62;;;9.91;78.19
62952;BME280;52163;52.212;-1.002;2022-10-16T02:46:35;99398.41;;;9.95;78.26
62952;BME280;52163;52.212;-1.002;2022-10-16T02:49:00;99404.08;;;9.99;78.40
62952;BME280;52163;52.212;-1.002;2022-10-16T02:51:25;99404.83;;;10.05;78.39
62952;BME280;52163;52.212;-1.002;2022-10-16T02:53:51;99415.60;;;10.10;78.51
62952;BME280;52163;52.212;-1.002;2022-10-16T02:56:16;99417.23;;;10.14;78.75
62952;BME280;52163;52.212;-1.002;2022-10-16T02:58:42;99415.66;;;10.16;79.09
62952;BME280;52163;52.212;-1.002;2022-10-16T03:01:07;99415.29;;;10.16;79.30
62952;BME280;52163;52.212;-1.002;2022-10-16T03:03:33;99404.46;;;10.15;79.70
62952;BME280;52163;52.212;-1.002;2022-10-16T03:05:58;99401.89;;;10.11;79.99
62952;BME280;52163;52.212;-1.002;2022-10-16T03:08:23;99405.33;;;10.08;80.32
62952;BME280;52163;52.212;-1.002;2022-10-16T03:10:51;99408.92;;;10.05;80.36
62952;BME280;52163;52.212;-1.002;2022-10-16T03:13:17;99413.61;;;10.01;80.35
62952;BME280;52163;52.212;-1.002;2022-10-16T03:15:43;99418.91;;;9.96;80.76
62952;BME280;52163;52.212;-1.002;2022-10-16T03:18:08;99419.24;;;9.92;80.84
62952;BME280;52163;52.212;-1.002;2022-10-16T03:20:34;99422.77;;;9.87;80.98
62952;BME280;52163;52.212;-1.002;2022-10-16T03:22:59;99425.16;;;9.83;80.98
62952;BME280;52163;52.212;-1.002;2022-10-16T03:25:25;99428.25;;;9.80;81.43
62952;BME280;52163;52.212;-1.002;2022-10-16T03:27:50;99432.29;;;9.78;81.17
62952;BME280;52163;52.212;-1.002;2022-10-16T03:30:16;99434.56;;;9.76;81.52
62952;BME280;52163;52.212;-1.002;2022-10-16T03:32:43;99441.80;;;9.76;81.84
62952;BME280;52163;52.212;-1.002;2022-10-16T03:35:11;99444.15;;;9.75;81.58
62952;BME280;52163;52.212;-1.002;2022-10-16T03:37:37;99442.36;;;9.72;81.60
62952;BME280;52163;52.212;-1.002;2022-10-16T03:40:03;99446.40;;;9.68;81.29
62952;BME280;52163;52.212;-1.002;2022-10-16T03:42:29;99455.12;;;9.64;81.46
62952;BME280;52163;52.212;-1.002;2022-10-16T03:44:54;99455.42;;;9.60;81.45
62952;BME280;52163;52.212;-1.002;2022-10-16T03:47:20;99462.52;;;9.57;81.36
62952;BME280;52163;52.212;-1.002;2022-10-16T03:49:47;99464.53;;;9.54;81.57
62952;BME280;52163;52.212;-1.002;2022-10-16T03:52:13;99470.91;;;9.51;81.46
62952;BME280;52163;52.212;-1.002;2022-10-16T03:54:38;99471.90;;;9.47;81.39
62952;BME280;52163;52.212;-1.002;2022-10-16T03:57:04;99474.69;;;9.42;81.67
62952;BME280;52163;52.212;-1.002;2022-10-16T03:59:29;99474.81;;;9.38;81.62
62952;BME280;52163;52.212;-1.002;2022-10-16T04:01:55;99482.59;;;9.35;81.93
62952;BME280;52163;52.212;-1.002;2022-10-16T04:04:20;99486.26;;;9.33;81.87
62952;BME280;52163;52.212;-1.002;2022-10-16T04:06:46;99492.37;;;9.32;81.92
62952;BME280;52163;52.212;-1.002;2022-10-16T04:09:11;99500.66;;;9.31;81.67
62952;BME280;52163;52.212;-1.002;2022-10-16T04:11:36;99506.77;;;9.30;82.23
62952;BME280;52163;52.212;-1.002;2022-10-16T04:14:02;99511.52;;;9.27;81.93
62952;BME280;52163;52.212;-1.002;2022-10-16T04:16:28;99523.35;;;9.24;81.85
62952;BME280;52163;52.212;-1.002;2022-10-16T04:18:53;99525.80;;;9.22;81.87
62952;BME280;52163;52.212;-1.002;2022-10-16T04:21:18;99534.44;;;9.20;81.72
62952;BME280;52163;52.212;-1.002;2022-10-16T04:23:44;99540.20;;;9.18;81.91
62952;BME280;52163;52.212;-1.002;2022-10-16T04:26:09;99541.17;;;9.17;82.12
62952;BME280;52163;52.212;-1.002;2022-10-16T04:28:36;99552.85;;;9.15;82.37
62952;BME280;52163;52.212;-1.002;2022-10-16T04:31:05;99556.77;;;9.15;81.98
62952;BME280;52163;52.212;-1.002;2022-10-16T04:33:31;99557.89;;;9.14;82.21
62952;BME280;52163;52.212;-1.002;2022-10-16T04:35:57;99565.65;;;9.12;82.40
62952;BME280;52163;52.212;-1.002;2022-10-16T04:38:23;99566.73;;;9.09;82.33
62952;BME280;52163;52.212;-1.002;2022-10-16T04:40:48;99568.27;;;9.07;82.30
62952;BME280;52163;52.212;-1.002;2022-10-16T04:43:13;99576.69;;;9.05;82.40
62952;BME280;52163;52.212;-1.002;2022-10-16T04:45:39;99589.63;;;9.04;82.32
62952;BME280;52163;52.212;-1.002;2022-10-16T04:48:04;99593.02;;;9.03;82.40
62952;BME280;52163;52.212;-1.002;2022-10-16T04:50:30;99593.79;;;9.02;82.71
62952;BME280;52163;52.212;-1.002;2022-10-16T04:52:55;99595.30;;;9.00;82.59
62952;BME280;52163;52.212;-1.002;2022-10-16T04:55:20;99603.20;;;8.98;82.43
62952;BME280;52163;52.212;-1.002;2022-10-16T04:57:46;99606.88;;;8.96;82.78
62952;BME280;52163;52.212;-1.002;2022-10-16T05:00:12;99606.73;;;8.93;82.55
62952;BME280;52163;52.212;-1.002;2022-10-16T05:02:38;99609.12;;;8.91;82.69
62952;BME280;52163;52.212;-1.002;2022-10-16T05:05:04;99618.34;;;8.91;82.90
62952;BME280;52163;52.212;-1.002;2022-10-16T05:07:29;99622.23;;;8.90;83.00
62952;BME280;52163;52.212;-1.002;2022-10-16T05:09:55;99630.14;;;8.91;82.78
62952;BME280;52163;52.212;-1.002;2022-10-16T05:12:20;99632.02;;;8.89;82.87
62952;BME280;52163;52.212;-1.002;2022-10-16T05:14:46;99637.13;;;8.86;82.85
62952;BME280;52163;52.212;-1.002;2022-10-16T05:17:11;99641.25;;;8.82;82.84
62952;BME280;52163;52.212;-1.002;2022-10-16T05:19:36;99646.40;;;8.79;82.80
62952;BME280;52163;52.212;-1.002;2022-10-16T05:22:02;99647.96;;;8.77;82.93
62952;BME280;52163;52.212;-1.002;2022-10-16T05:24:27;99655.93;;;8.76;83.10
62952;BME280;52163;52.212;-1.002;2022-10-16T05:26:52;99659.46;;;8.76;83.44
62952;BME280;52163;52.212;-1.002;2022-10-16T05:29:18;99664.44;;;8.75;83.38
62952;BME280;52163;52.212;-1.002;2022-10-16T05:31:44;99672.21;;;8.75;83.85
62952;BME280;52163;52.212;-1.002;2022-10-16T05:34:09;99678.90;;;8.75;83.81
62952;BME280;52163;52.212;-1.002;2022-10-16T05:36:35;99684.46;;;8.73;83.45
62952;BME280;52163;52.212;-1.002;2022-10-16T05:39:00;99689.14;;;8.72;83.51
62952;BME280;52163;52.212;-1.002;2022-10-16T05:41:26;99695.31;;;8.69;83.48
62952;BME280;52163;52.212;-1.002;2022-10-16T05:43:52;99701.38;;;8.67;83.43
62952;BME280;52163;52.212;-1.002;2022-10-16T05:46:18;99705.45;;;8.67;83.82
62952;BME280;52163;52.212;-1.002;2022-10-16T05:48:44;99705.77;;;8.65;83.43
62952;BME280;52163;52.212;-1.002;2022-10-16T05:51:11;99705.02;;;8.63;83.58
62952;BME280;52163;52.212;-1.002;2022-10-16T05:53:38;99708.21;;;8.60;83.46
62952;BME280;52163;52.212;-1.002;2022-10-16T05:56:05;99713.31;;;8.57;83.64
62952;BME280;52163;52.212;-1.002;2022-10-16T05:58:33;99715.33;;;8.53;83.44
62952;BME280;52163;52.212;-1.002;2022-10-16T06:01:02;99713.67;;;8.49;83.64
62952;BME280;52163;52.212;-1.002;2022-10-16T06:03:28;99715.05;;;8.46;83.83
62952;BME280;52163;52.212;-1.002;2022-10-16T06:05:54;99718.38;;;8.47;84.12
62952;BME280;52163;52.212;-1.002;2022-10-16T06:08:21;99729.89;;;8.46;84.11
62952;BME280;52163;52.212;-1.002;2022-10-16T06:10:48;99743.67;;;8.45;84.24
62952;BME280;52163;52.212;-1.002;2022-10-16T06:13:15;99751.41;;;8.44;84.31
62952;BME280;52163;52.212;-1.002;2022-10-16T06:15:41;99760.70;;;8.42;84.33
62952;BME280;52163;52.212;-1.002;2022-10-16T06:18:10;99768.13;;;8.39;84.28
62952;BME280;52163;52.212;-1.002;2022-10-16T06:20:37;99767.54;;;8.37;84.45
62952;BME280;52163;52.212;-1.002;2022-10-16T06:23:03;99772.42;;;8.37;84.43
62952;BME280;52163;52.212;-1.002;2022-10-16T06:25:30;99776.52;;;8.39;84.74
62952;BME280;52163;52.212;-1.002;2022-10-16T06:27:56;99777.04;;;8.39;84.53
62952;BME280;52163;52.212;-1.002;2022-10-16T06:30:22;99786.13;;;8.41;84.81
62952;BME280;52163;52.212;-1.002;2022-10-16T06:32:47;99789.63;;;8.41;84.70
62952;BME280;52163;52.212;-1.002;2022-10-16T06:35:13;99794.06;;;8.37;84.70
62952;BME280;52163;52.212;-1.002;2022-10-16T06:37:38;99801.89;;;8.33;84.63
62952;BME280;52163;52.212;-1.002;2022-10-16T06:40:04;99807.60;;;8.32;85.02
62952;BME280;52163;52.212;-1.002;2022-10-16T06:42:30;99815.55;;;8.32;84.99
62952;BME280;52163;52.212;-1.002;2022-10-16T06:44:55;99816.89;;;8.33;85.19
62952;BME280;52163;52.212;-1.002;2022-10-16T06:47:21;99820.04;;;8.33;85.37
62952;BME280;52163;52.212;-1.002;2022-10-16T06:49:46;99823.25;;;8.32;85.35
62952;BME280;52163;52.212;-1.002;2022-10-16T06:52:12;99828.75;;;8.32;85.52
62952;BME280;52163;52.212;-1.002;2022-10-16T06:54:37;99828.38;;;8.32;85.59
62952;BME280;52163;52.212;-1.002;2022-10-16T06:57:03;99832.30;;;8.31;85.36
62952;BME280;52163;52.212;-1.002;2022-10-16T06:59:28;99834.49;;;8.29;85.36
62952;BME280;52163;52.212;-1.002;2022-10-16T07:01:54;99835.07;;;8.29;85.70
62952;BME280;52163;52.212;-1.002;2022-10-16T07:04:19;99839.58;;;8.30;85.56
62952;BME280;52163;52.212;-1.002;2022-10-16T07:06:44;99849.77;;;8.33;86.10
62952;BME280;52163;52.212;-1.002;2022-10-16T07:09:10;99849.88;;;8.35;85.78
62952;BME280;52163;52.212;-1.002;2022-10-16T07:11:37;99850.45;;;8.33;85.40
62952;BME280;52163;52.212;-1.002;2022-10-16T07:14:03;99857.13;;;8.31;85.63
62952;BME280;52163;52.212;-1.002;2022-10-16T07:16:31;99860.05;;;8.29;85.73
62952;BME280;52163;52.212;-1.002;2022-10-16T07:18:59;99863.40;;;8.29;85.94
62952;BME280;52163;52.212;-1.002;2022-10-16T07:21:30;99865.19;;;8.28;85.85
62952;BME280;52163;52.212;-1.002;2022-10-16T07:23:58;99867.64;;;8.32;86.10
62952;BME280;52163;52.212;-1.002;2022-10-16T07:26:26;99867.77;;;8.35;86.24
62952;BME280;52163;52.212;-1.002;2022-10-16T07:28:52;99869.02;;;8.38;86.08
62952;BME280;52163;52.212;-1.002;2022-10-16T07:31:21;99876.65;;;8.39;86.08
62952;BME280;52163;52.212;-1.002;2022-10-16T07:33:48;99876.15;;;8.39;85.96
62952;BME280;52163;52.212;-1.002;2022-10-16T07:36:15;99879.84;;;8.39;86.02
62952;BME280;52163;52.212;-1.002;2022-10-16T07:38:41;99879.93;;;8.40;86.14
62952;BME280;52163;52.212;-1.002;2022-10-16T07:41:11;99881.61;;;8.41;86.41
62952;BME280;52163;52.212;-1.002;2022-10-16T07:43:38;99881.19;;;8.46;86.76
62952;BME280;52163;52.212;-1.002;2022-10-16T07:46:04;99884.23;;;8.51;86.54
62952;BME280;52163;52.212;-1.002;2022-10-16T07:48:31;99895.59;;;8.56;86.66
62952;BME280;52163;52.212;-1.002;2022-10-16T07:51:01;99903.80;;;8.60;86.49
62952;BME280;52163;52.212;-1.002;2022-10-16T07:53:28;99913.45;;;8.63;86.43
62952;BME280;52163;52.212;-1.002;2022-10-16T07:55:58;99916.67;;;8.65;86.44
62952;BME280;52163;52.212;-1.002;2022-10-16T07:58:24;99928.25;;;8.68;86.54
62952;BME280;52163;52.212;-1.002;2022-10-16T08:00:49;99933.48;;;8.76;87.03
62952;BME280;52163;52.212;-1.002;2022-10-16T08:03:14;99935.17;;;8.82;86.91
62952;BME280;52163;52.212;-1.002;2022-10-16T08:05:40;99941.11;;;8.89;86.73
62952;BME280;52163;52.212;-1.002;2022-10-16T08:08:05;99951.98;;;8.92;86.81
62952;BME280;52163;52.212;-1.002;2022-10-16T08:10:31;99954.15;;;8.94;86.57
62952;BME280;52163;52.212;-1.002;2022-10-16T08:12:57;99953.13;;;8.97;86.49
62952;BME280;52163;52.212;-1.002;2022-10-16T08:15:22;99957.37;;;8.99;86.86
62952;BME280;52163;52.212;-1.002;2022-10-16T08:17:59;99967.30;;;9.04;86.90
62952;BME280;52163;52.212;-1.002;2022-10-16T08:20:25;99968.13;;;9.10;86.99
62952;BME280;52163;52.212;-1.002;2022-10-16T08:22:51;99969.47;;;9.17;86.95
62952;BME280;52163;52.212;-1.002;2022-10-16T08:25:17;99973.27;;;9.24;86.83
62952;BME280;52163;52.212;-1.002;2022-10-16T08:27:45;99979.40;;;9.28;86.30
62952;BME280;52163;52.212;-1.002;2022-10-16T08:30:12;99987.17;;;9.30;86.21
62952;BME280;52163;52.212;-1.002;2022-10-16T08:32:37;99989.81;;;9.33;86.36
62952;BME280;52163;52.212;-1.002;2022-10-16T08:35:03;99993.05;;;9.37;86.34
62952;BME280;52163;52.212;-1.002;2022-10-16T08:37:32;99998.73;;;9.43;86.30
62952;BME280;52163;52.212;-1.002;2022-10-16T08:39:58;100003.60;;;9.49;86.07
62952;BME280;52163;52.212;-1.002;2022-10-16T08:50:29;100016.46;;;9.69;85.28
62952;BME280;52163;52.212;-1.002;2022-10-16T08:52:56;100017.67;;;9.72;85.35
62952;BME280;52163;52.212;-1.002;2022-10-16T08:57:50;100021.77;;;9.82;85.41
62952;BME280;52163;52.212;-1.002;2022-10-16T09:00:16;100028.89;;;9.89;85.45
62952;BME280;52163;52.212;-1.002;2022-10-16T09:02:52;100034.30;;;9.96;85.14
62952;BME280;52163;52.212;-1.002;2022-10-16T09:14:00;100042.17;;;10.10;83.74
62952;BME280;52163;52.212;-1.002;2022-10-16T09:16:39;100042.60;;;10.15;83.22
62952;BME280;52163;52.212;-1.002;2022-10-16T09:21:36;100040.59;;;10.24;82.38
62952;BME280;52163;52.212;-1.002;2022-10-16T09:24:24;100038.58;;;10.28;81.72
62952;BME280;52163;52.212;-1.002;2022-10-16T09:26:51;100042.54;;;10.32;80.89
62952;BME280;52163;52.212;-1.002;2022-10-16T09:29:20;100044.98;;;10.35;79.63
62952;BME280;52163;52.212;-1.002;2022-10-16T09:31:47;100053.85;;;10.37;78.77
62952;BME280;52163;52.212;-1.002;2022-10-16T09:34:35;100059.25;;;10.38;78.54
62952;BME280;52163;52.212;-1.002;2022-10-16T09:37:04;100060.41;;;10.40;77.78
62952;BME280;52163;52.212;-1.002;2022-10-16T09:39:47;100062.51;;;10.43;77.14
62952;BME280;52163;52.212;-1.002;2022-10-16T09:42:22;100059.85;;;10.48;76.72
62952;BME280;52163;52.212;-1.002;2022-10-16T09:44:49;100055.89;;;10.55;75.97
62952;BME280;52163;52.212;-1.002;2022-10-16T09:47:26;100051.68;;;10.62;75.34
62952;BME280;52163;52.212;-1.002;2022-10-16T09:49:53;100049.77;;;10.70;74.64
62952;BME280;52163;52.212;-1.002;2022-10-16T09:52:20;100054.27;;;10.76;74.22
62952;BME280;52163;52.212;-1.002;2022-10-16T09:54:54;100055.84;;;10.82;73.84
62952;BME280;52163;52.212;-1.002;2022-10-16T09:57:20;100056.52;;;10.87;72.82
62952;BME280;52163;52.212;-1.002;2022-10-16T09:59:48;100053.89;;;10.92;72.44
62952;BME280;52163;52.212;-1.002;2022-10-16T10:02:16;100056.48;;;10.96;71.93
62952;BME280;52163;52.212;-1.002;2022-10-16T10:04:50;100058.14;;;11.00;71.46
62952;BME280;52163;52.212;-1.002;2022-10-16T10:07:25;100061.14;;;11.05;71.27
62952;BME280;52163;52.212;-1.002;2022-10-16T10:09:52;100063.02;;;11.14;70.77
62952;BME280;52163;52.212;-1.002;2022-10-16T10:12:21;100064.73;;;11.24;70.33
62952;BME280;52163;52.212;-1.002;2022-10-16T10:14:50;100069.39;;;11.34;69.93
62952;BME280;52163;52.212;-1.002;2022-10-16T10:17:27;100067.16;;;11.41;69.76
62952;BME280;52163;52.212;-1.002;2022-10-16T10:19:55;100072.30;;;11.48;70.81
62952;BME280;52163;52.212;-1.002;2022-10-16T10:30:44;100074.93;;;11.85;72.58
62952;BME280;52163;52.212;-1.002;2022-10-16T10:55:02;100079.84;;;12.71;68.95
62952;BME280;52163;52.212;-1.002;2022-10-16T11:08:43;100084.48;;;12.63;66.61
62952;BME280;52163;52.212;-1.002;2022-10-16T11:11:25;100084.05;;;12.64;66.83
62952;BME280;52163;52.212;-1.002;2022-10-16T11:14:00;100080.35;;;12.67;66.88
62952;BME280;52163;52.212;-1.002;2022-10-16T11:16:31;100075.52;;;12.69;67.03
62952;BME280;52163;52.212;-1.002;2022-10-16T11:19:31;100080.95;;;12.73;66.41
62952;BME280;52163;52.212;-1.002;2022-10-16T11:22:08;100074.57;;;12.77;66.26
62952;BME280;52163;52.212;-1.002;2022-10-16T11:25:04;100074.61;;;12.84;66.02
62952;BME280;52163;52.212;-1.002;2022-10-16T11:27:47;100066.79;;;12.93;65.33
62952;BME280;52163;52.212;-1.002;2022-10-16T11:31:13;100061.90;;;13.02;64.80
62952;BME280;52163;52.212;-1.002;2022-10-16T11:33:34;100062.63;;;13.13;64.74
62952;BME280;52163;52.212;-1.002;2022-10-16T11:36:15;100060.88;;;13.22;64.38
62952;BME280;52163;52.212;-1.002;2022-10-16T11:39:09;100059.77;;;13.29;63.45
62952;BME280;52163;52.212;-1.002;2022-10-16T11:41:48;100055.16;;;13.36;63.04
62952;BME280;52163;52.212;-1.002;2022-10-16T11:44:38;100055.64;;;13.39;62.24
62952;BME280;52163;52.212;-1.002;2022-10-16T11:49:50;100057.47;;;13.45;62.29
62952;BME280;52163;52.212;-1.002;2022-10-16T11:52:22;100060.17;;;13.49;61.80
62952;BME280;52163;52.212;-1.002;2022-10-16T11:55:14;100061.38;;;13.52;61.15
62952;BME280;52163;52.212;-1.002;2022-10-16T11:57:46;100058.81;;;13.55;61.48
62952;BME280;52163;52.212;-1.002;2022-10-16T12:00:23;100061.80;;;13.60;61.57
62952;BME280;52163;52.212;-1.002;2022-10-16T12:10:31;100055.81;;;13.84;60.35
62952;BME280;52163;52.212;-1.002;2022-10-16T12:16:07;100055.27;;;13.97;59.63
62952;BME280;52163;52.212;-1.002;2022-10-16T12:18:46;100054.25;;;14.03;59.81
62952;BME280;52163;52.212;-1.002;2022-10-16T12:21:13;100056.77;;;14.09;60.05
62952;BME280;52163;52.212;-1.002;2022-10-16T12:23:48;100052.30;;;14.14;59.95
62952;BME280;52163;52.212;-1.002;2022-10-16T12:26:24;100052.05;;;14.21;59.94
62952;BME280;52163;52.212;-1.002;2022-10-16T12:28:50;100048.77;;;14.27;59.82
62952;BME280;52163;52.212;-1.002;2022-10-16T12:31:17;100053.27;;;14.32;59.62
62952;BME280;52163;52.212;-1.002;2022-10-16T12:33:58;100058.61;;;14.39;59.44
62952;BME280;52163;52.212;-1.002;2022-10-16T12:36:33;100064.52;;;14.42;59.42
62952;BME280;52163;52.212;-1.002;2022-10-16T12:39:00;100059.45;;;14.46;59.39
62952;BME280;52163;52.212;-1.002;2022-10-16T12:41:32;100056.70;;;14.51;59.13
62952;BME280;52163;52.212;-1.002;2022-10-16T12:43:58;100062.95;;;14.57;59.05
62952;BME280;52163;52.212;-1.002;2022-10-16T12:49:20;100053.39;;;14.74;59.45
62952;BME280;52163;52.212;-1.002;2022-10-16T12:51:47;100060.86;;;14.85;59.31
62952;BME280;52163;52.212;-1.002;2022-10-16T12:54:16;100062.35;;;14.92;59.55
62952;BME280;52163;52.212;-1.002;2022-10-16T13:10:17;100053.65;;;15.10;60.06
62952;BME280;52163;52.212;-1.002;2022-10-16T13:13:19;100058.37;;;15.12;59.96
62952;BME280;52163;52.212;-1.002;2022-10-16T13:21:54;100054.39;;;15.37;59.88
62952;BME280;52163;52.212;-1.002;2022-10-16T13:24:52;100054.76;;;15.47;59.82
62952;BME280;52163;52.212;-1.002;2022-10-16T13:30:02;100043.86;;;15.56;59.45
62952;BME280;52163;52.212;-1.002;2022-10-16T13:32:33;100043.81;;;15.54;59.19
62952;BME280;52163;52.212;-1.002;2022-10-16T13:34:59;100035.73;;;15.49;58.94
62952;BME280;52163;52.212;-1.002;2022-10-16T13:37:26;100031.70;;;15.44;59.10
62952;BME280;52163;52.212;-1.002;2022-10-16T13:40:23;100035.70;;;15.39;59.32
62952;BME280;52163;52.212;-1.002;2022-10-16T13:42:49;100039.30;;;15.26;59.35
62952;BME280;52163;52.212;-1.002;2022-10-16T13:45:24;100037.40;;;15.16;59.46
62952;BME280;52163;52.212;-1.002;2022-10-16T13:48:02;100036.66;;;15.09;59.85
62952;BME280;52163;52.212;-1.002;2022-10-16T13:50:28;100031.17;;;15.07;59.86
62952;BME280;52163;52.212;-1.002;2022-10-16T13:53:06;100026.33;;;15.08;60.12
62952;BME280;52163;52.212;-1.002;2022-10-16T13:55:32;100021.93;;;15.07;59.94
62952;BME280;52163;52.212;-1.002;2022-10-16T13:58:07;100029.78;;;15.04;60.06
62952;BME280;52163;52.212;-1.002;2022-10-16T14:00:33;100032.70;;;15.00;59.55
62952;BME280;52163;52.212;-1.002;2022-10-16T14:03:03;100033.92;;;14.96;59.32
62952;BME280;52163;52.212;-1.002;2022-10-16T14:05:29;100026.64;;;14.92;59.19
62952;BME280;52163;52.212;-1.002;2022-10-16T14:07:56;100037.30;;;14.90;59.52
62952;BME280;52163;52.212;-1.002;2022-10-16T14:10:25;100034.21;;;14.92;59.54
62952;BME280;52163;52.212;-1.002;2022-10-16T14:13:04;100032.17;;;14.98;59.52
62952;BME280;52163;52.212;-1.002;2022-10-16T14:15:32;100034.16;;;15.03;59.40
62952;BME280;52163;52.212;-1.002;2022-10-16T14:17:58;100024.02;;;15.08;58.88
62952;BME280;52163;52.212;-1.002;2022-10-16T14:20:29;100030.39;;;15.08;58.38
62952;BME280;52163;52.212;-1.002;2022-10-16T14:25:30;100036.65;;;15.07;58.26
62952;BME280;52163;52.212;-1.002;2022-10-16T14:28:14;100032.78;;;15.09;58.33
62952;BME280;52163;52.212;-1.002;2022-10-16T14:30:58;100025.45;;;15.12;58.37
62952;BME280;52163;52.212;-1.002;2022-10-16T14:38:38;100021.14;;;15.27;58.35
62952;BME280;52163;52.212;-1.002;2022-10-16T14:41:04;100020.38;;;15.31;57.74
62952;BME280;52163;52.212;-1.002;2022-10-16T14:43:35;100011.10;;;15.33;57.41
62952;BME280;52163;52.212;-1.002;2022-10-16T14:46:05;100012.63;;;15.34;57.26
62952;BME280;52163;52.212;-1.002;2022-10-16T14:48:32;100009.95;;;15.34;56.96
62952;BME280;52163;52.212;-1.002;2022-10-16T14:50:57;100006.16;;;15.33;56.80
62952;BME280;52163;52.212;-1.002;2022-10-16T14:53:25;100006.80;;;15.30;56.44
62952;BME280;52163;52.212;-1.002;2022-10-16T14:55:51;100006.94;;;15.26;56.71
62952;BME280;52163;52.212;-1.002;2022-10-16T14:58:19;100009.67;;;15.22;56.82
62952;BME280;52163;52.212;-1.002;2022-10-16T15:00:46;100006.17;;;15.17;56.88